Time;durP1;ratioP1;P1;durP2;ratioP2;P2;SDS_P1;SDS_P2;PMS_P1;PMS_P2;Temp;Humidity;BMP_temperature;BMP_pressure;BME280_temperature;BME280_humidity;BME280_pressure;Samples;Min_cycle;Max_cycle;Signal;HPM_P1;HPM_P2
2022/01/26 00:06:49;;;;;;;18.02;10.98;;;;;;;;;;143735;571;46020;-83
2022/01/26 00:09:16;;;;;;;18.90;11.48;;;;;;;;;;143735;565;46012;-84
2022/01/26 00:11:43;;;;;;;21.10;11.93;;;;;;;;;;143730;579;47021;-82
2022/01/26 00:14:12;;;;;;;20.30;12.05;;;;;;;;;;143731;592;46012;-83
2022/01/26 00:16:41;;;;;;;17.98;11.95;;;;;;;;;;143734;569;46020;-83
2022/01/26 00:19:16;;;;;;;21.37;12.10;;;;;;;;;;143736;567;46021;-84
2022/01/26 00:21:52;;;;;;;19.50;12.30;;;;;;;;;;143733;598;46022;-83
2022/01/26 00:27:38;;;;;;;20.37;11.90;;;;;;;;;;143734;599;46021;-82
2022/01/26 00:38:35;;;;;;;18.20;10.95;;;;;;;;;;143733;571;46020;-83
2022/01/26 00:41:07;;;;;;;16.30;11.15;;;;;;;;;;143734;570;46013;-83
2022/01/26 00:43:36;;;;;;;21.50;11.98;;;;;;;;;;143731;631;47022;-82
2022/01/26 00:46:06;;;;;;;17.50;11.00;;;;;;;;;;143734;616;46012;-82
2022/01/26 00:48:37;;;;;;;15.75;10.60;;;;;;;;;;143735;571;46021;-83
2022/01/26 00:51:07;;;;;;;15.73;8.80;;;;;;;;;;143734;590;46018;-83
2022/01/26 00:53:40;;;;;;;19.62;9.40;;;;;;;;;;143734;583;46022;-82
2022/01/26 00:56:10;;;;;;;11.32;7.55;;;;;;;;;;143734;570;45915;-82
2022/01/26 00:58:37;;;;;;;15.23;9.23;;;;;;;;;;143733;569;47020;-82
2022/01/26 01:01:05;;;;;;;17.30;9.20;;;;;;;;;;143734;601;46018;-82
2022/01/26 01:03:34;;;;;;;17.67;9.75;;;;;;;;;;143734;624;46023;-84
2022/01/26 01:06:14;;;;;;;25.58;12.82;;;;;;;;;;143737;573;46012;-84
2022/01/26 01:08:45;;;;;;;18.70;11.25;;;;;;;;;;143734;575;46020;-83
2022/01/26 01:11:13;;;;;;;16.75;8.32;;;;;;;;;;143739;588;46021;-83
2022/01/26 01:13:41;;;;;;;13.35;8.20;;;;;;;;;;143732;565;46014;-82
2022/01/26 01:16:15;;;;;;;12.05;7.53;;;;;;;;;;143734;564;46012;-83
2022/01/26 01:18:48;;;;;;;16.10;9.13;;;;;;;;;;143732;564;47021;-83
2022/01/26 01:30:08;;;;;;;16.98;11.02;;;;;;;;;;143735;593;46020;-82
2022/01/26 01:32:50;;;;;;;14.35;8.88;;;;;;;;;;143735;569;46012;-82
2022/01/26 01:35:20;;;;;;;16.70;8.13;;;;;;;;;;143732;572;46023;-82
2022/01/26 01:37:47;;;;;;;18.90;9.65;;;;;;;;;;143733;567;46020;-82
2022/01/26 01:40:14;;;;;;;13.93;8.77;;;;;;;;;;143733;566;46021;-83
2022/01/26 01:42:47;;;;;;;16.17;8.90;;;;;;;;;;143734;575;46021;-82
2022/01/26 01:45:14;;;;;;;15.25;7.87;;;;;;;;;;143733;604;46022;-82
2022/01/26 01:47:41;;;;;;;13.48;7.82;;;;;;;;;;143731;621;46013;-82
2022/01/26 01:50:11;;;;;;;15.93;10.15;;;;;;;;;;143734;579;46020;-83
2022/01/26 01:52:38;;;;;;;12.88;8.57;;;;;;;;;;143734;607;46018;-82
2022/01/26 01:55:06;;;;;;;19.70;10.00;;;;;;;;;;143730;573;46022;-83
2022/01/26 01:57:32;;;;;;;19.40;10.40;;;;;;;;;;143733;617;46014;-82
2022/01/26 02:00:03;;;;;;;16.60;9.90;;;;;;;;;;143734;596;46020;-82
2022/01/26 02:02:30;;;;;;;14.98;9.15;;;;;;;;;;143735;589;46013;-83
2022/01/26 02:04:58;;;;;;;13.95;8.57;;;;;;;;;;143732;603;46023;-83
2022/01/26 02:07:26;;;;;;;20.88;9.98;;;;;;;;;;143731;600;46012;-82
2022/01/26 02:09:53;;;;;;;15.63;9.30;;;;;;;;;;143734;602;46021;-83
2022/01/26 02:12:23;;;;;;;17.35;10.02;;;;;;;;;;143735;588;46012;-81
2022/01/26 02:15:01;;;;;;;15.00;9.77;;;;;;;;;;143734;638;46022;-82
2022/01/26 02:18:08;;;;;;;15.77;8.45;;;;;;;;;;143733;574;46012;-82
2022/01/26 02:54:20;;;;;;;25.52;15.25;;;;;;;;;;143738;649;45022;-83
2022/01/26 02:57:06;;;;;;;18.65;10.25;;;;;;;;;;143735;571;47021;-83
2022/01/26 03:00:10;;;;;;;13.95;8.25;;;;;;;;;;143733;608;46022;-83
2022/01/26 03:02:50;;;;;;;15.50;9.63;;;;;;;;;;143733;581;46012;-83
2022/01/26 03:05:20;;;;;;;15.23;9.93;;;;;;;;;;143733;585;46020;-83
2022/01/26 03:07:54;;;;;;;14.30;10.35;;;;;;;;;;143734;598;46012;-83
2022/01/26 03:13:21;;;;;;;13.70;8.02;;;;;;;;;;143733;608;46020;-82
2022/01/26 03:15:54;;;;;;;13.98;8.40;;;;;;;;;;143732;596;47020;-83
2022/01/26 03:21:13;;;;;;;19.75;8.93;;;;;;;;;;143735;601;46020;-83
2022/01/26 03:29:26;;;;;;;12.63;7.97;;;;;;;;;;143734;584;47020;-83
2022/01/26 03:34:37;;;;;;;13.65;8.07;;;;;;;;;;143734;594;46020;-83
2022/01/26 03:37:07;;;;;;;12.13;7.95;;;;;;;;;;143732;586;46020;-82
2022/01/26 03:39:43;;;;;;;12.60;8.52;;;;;;;;;;143736;589;46042;-82
2022/01/26 03:42:14;;;;;;;16.62;8.93;;;;;;;;;;143733;569;46022;-82
2022/01/26 03:44:42;;;;;;;16.33;10.32;;;;;;;;;;143734;565;46012;-83
2022/01/26 03:47:12;;;;;;;13.77;8.32;;;;;;;;;;143734;573;46021;-82
2022/01/26 03:49:39;;;;;;;17.87;9.32;;;;;;;;;;143735;594;46012;-82
2022/01/26 03:52:06;;;;;;;13.68;8.68;;;;;;;;;;143734;599;46020;-83
2022/01/26 03:54:34;;;;;;;11.20;7.43;;;;;;;;;;143734;570;46012;-83
2022/01/26 03:57:01;;;;;;;14.87;8.77;;;;;;;;;;143736;576;46020;-83
2022/01/26 03:59:28;;;;;;;12.43;8.30;;;;;;;;;;143739;672;45036;-83
2022/01/26 04:01:58;;;;;;;15.02;9.55;;;;;;;;;;143735;669;46022;-83
2022/01/26 04:04:31;;;;;;;19.40;11.70;;;;;;;;;;143733;609;46012;-83
2022/01/26 04:07:00;;;;;;;25.17;10.85;;;;;;;;;;143734;571;46020;-82
2022/01/26 04:09:27;;;;;;;21.08;11.93;;;;;;;;;;143737;742;46012;-83
2022/01/26 04:11:56;;;;;;;21.73;12.85;;;;;;;;;;143732;643;47023;-83
2022/01/26 04:14:28;;;;;;;17.30;11.23;;;;;;;;;;143734;591;46012;-84
2022/01/26 04:16:55;;;;;;;15.07;9.80;;;;;;;;;;143736;567;46021;-83
2022/01/26 04:19:23;;;;;;;18.42;10.57;;;;;;;;;;143735;583;46012;-83
2022/01/26 04:22:03;;;;;;;17.75;10.82;;;;;;;;;;143733;640;46022;-84
2022/01/26 04:24:38;;;;;;;14.25;8.30;;;;;;;;;;143732;569;46013;-83
2022/01/26 04:27:26;;;;;;;19.42;13.70;;;;;;;;;;143735;686;46020;-82
2022/01/26 04:29:53;;;;;;;24.45;13.15;;;;;;;;;;143735;622;46020;-83
2022/01/26 04:32:20;;;;;;;18.33;12.10;;;;;;;;;;143733;574;46023;-82
2022/01/26 04:34:49;;;;;;;17.77;11.25;;;;;;;;;;143735;582;46020;-83
2022/01/26 04:37:36;;;;;;;21.10;10.80;;;;;;;;;;143735;582;46020;-84
2022/01/26 04:40:06;;;;;;;17.73;11.95;;;;;;;;;;143736;572;46044;-83
2022/01/26 04:42:51;;;;;;;20.55;12.57;;;;;;;;;;143731;574;47022;-83
2022/01/26 04:45:18;;;;;;;22.80;12.43;;;;;;;;;;143734;583;46012;-83
2022/01/26 04:47:45;;;;;;;16.80;10.50;;;;;;;;;;143736;576;46021;-83
2022/01/26 04:50:12;;;;;;;23.55;11.07;;;;;;;;;;143735;564;46012;-83
2022/01/26 04:52:40;;;;;;;19.05;11.27;;;;;;;;;;143733;583;46022;-82
2022/01/26 04:55:07;;;;;;;16.25;10.93;;;;;;;;;;143733;609;46013;-82
2022/01/26 04:57:34;;;;;;;18.30;11.02;;;;;;;;;;143732;573;46020;-83
2022/01/26 05:00:02;;;;;;;16.08;10.48;;;;;;;;;;143734;632;46018;-82
2022/01/26 05:02:28;;;;;;;15.70;9.82;;;;;;;;;;143734;618;46022;-83
2022/01/26 05:04:55;;;;;;;19.27;9.93;;;;;;;;;;143732;593;46020;-83
2022/01/26 05:07:22;;;;;;;13.80;8.68;;;;;;;;;;143736;591;46020;-82
2022/01/26 05:09:49;;;;;;;16.60;9.73;;;;;;;;;;143736;608;46013;-82
2022/01/26 05:12:16;;;;;;;13.88;8.57;;;;;;;;;;143733;615;47020;-83
2022/01/26 05:14:45;;;;;;;16.67;11.32;;;;;;;;;;143731;589;47012;-82
2022/01/26 05:17:13;;;;;;;20.62;14.27;;;;;;;;;;143733;569;46021;-83
2022/01/26 05:19:40;;;;;;;21.60;13.38;;;;;;;;;;143737;637;46018;-83
2022/01/26 05:22:07;;;;;;;21.83;12.95;;;;;;;;;;143731;573;46022;-83
2022/01/26 05:24:35;;;;;;;22.17;12.80;;;;;;;;;;143733;667;46013;-83
2022/01/26 05:27:01;;;;;;;19.80;11.48;;;;;;;;;;143735;587;46020;-83
2022/01/26 05:29:28;;;;;;;20.95;11.77;;;;;;;;;;143735;576;46020;-82
2022/01/26 05:31:55;;;;;;;18.10;10.63;;;;;;;;;;143734;574;46015;-84
2022/01/26 05:34:22;;;;;;;15.48;10.13;;;;;;;;;;143735;567;46012;-82
2022/01/26 05:36:49;;;;;;;17.45;10.13;;;;;;;;;;143736;576;46020;-83
2022/01/26 05:39:15;;;;;;;14.00;8.70;;;;;;;;;;143736;580;46013;-82
2022/01/26 05:41:42;;;;;;;16.58;9.35;;;;;;;;;;143735;602;46023;-83
2022/01/26 05:44:12;;;;;;;16.17;9.88;;;;;;;;;;143736;593;46012;-83
2022/01/26 05:46:44;;;;;;;15.85;8.88;;;;;;;;;;143735;629;46021;-83
2022/01/26 05:49:11;;;;;;;15.38;9.57;;;;;;;;;;143736;565;46012;-83
2022/01/26 05:51:37;;;;;;;16.90;10.30;;;;;;;;;;143736;572;46016;-82
2022/01/26 05:54:09;;;;;;;19.58;10.48;;;;;;;;;;143736;740;46012;-83
2022/01/26 05:56:36;;;;;;;17.17;10.10;;;;;;;;;;143736;574;46037;-83
2022/01/26 05:59:05;;;;;;;16.60;10.40;;;;;;;;;;143735;592;46018;-83
2022/01/26 06:01:32;;;;;;;18.05;11.38;;;;;;;;;;143733;574;47021;-82
2022/01/26 06:03:59;;;;;;;21.70;11.30;;;;;;;;;;143735;611;46012;-83
2022/01/26 06:06:26;;;;;;;15.23;9.48;;;;;;;;;;143735;569;46020;-83
2022/01/26 06:08:53;;;;;;;24.60;13.32;;;;;;;;;;143738;572;46044;-82
2022/01/26 06:11:22;;;;;;;26.75;14.98;;;;;;;;;;143733;599;46029;-83
2022/01/26 06:13:49;;;;;;;21.55;12.88;;;;;;;;;;143734;588;46915;-83
2022/01/26 06:16:16;;;;;;;22.95;12.27;;;;;;;;;;143734;599;47020;-82
2022/01/26 06:18:46;;;;;;;19.98;12.15;;;;;;;;;;143738;600;46034;-82
2022/01/26 06:21:17;;;;;;;23.48;14.20;;;;;;;;;;143736;573;46020;-83
2022/01/26 06:23:44;;;;;;;22.85;14.13;;;;;;;;;;143737;581;46021;-82
2022/01/26 06:26:11;;;;;;;23.65;13.98;;;;;;;;;;143736;635;46020;-82
2022/01/26 06:28:38;;;;;;;28.02;14.93;;;;;;;;;;143736;654;46012;-82
2022/01/26 06:31:14;;;;;;;23.40;13.35;;;;;;;;;;143733;569;46022;-83
2022/01/26 06:33:42;;;;;;;21.92;14.10;;;;;;;;;;143732;585;46916;-81
2022/01/26 06:36:14;;;;;;;20.70;13.02;;;;;;;;;;143736;709;46020;-82
2022/01/26 06:38:42;;;;;;;23.60;12.48;;;;;;;;;;143735;678;46013;-82
2022/01/26 06:41:09;;;;;;;16.12;9.55;;;;;;;;;;143736;628;46023;-81
2022/01/26 06:43:44;;;;;;;19.92;9.60;;;;;;;;;;143735;694;46020;-81
2022/01/26 06:46:18;;;;;;;23.98;10.77;;;;;;;;;;143738;738;46021;-82
2022/01/26 06:49:02;;;;;;;17.83;11.20;;;;;;;;;;143736;583;46012;-81
2022/01/26 06:51:31;;;;;;;11.45;7.95;;;;;;;;;;143736;596;46020;-82
2022/01/26 06:53:58;;;;;;;13.13;9.32;;;;;;;;;;143736;629;46013;-80
2022/01/26 06:56:28;;;;;;;16.58;8.68;;;;;;;;;;143737;625;46020;-81
2022/01/26 06:58:55;;;;;;;17.17;8.43;;;;;;;;;;143735;605;46012;-82
2022/01/26 07:01:22;;;;;;;15.55;9.18;;;;;;;;;;143733;588;46022;-81
2022/01/26 07:03:49;;;;;;;15.63;9.95;;;;;;;;;;143735;605;46012;-81
2022/01/26 07:06:16;;;;;;;17.10;8.85;;;;;;;;;;143734;569;46018;-81
2022/01/26 07:08:44;;;;;;;17.08;8.90;;;;;;;;;;143736;629;46019;-81
2022/01/26 07:11:11;;;;;;;11.20;9.00;;;;;;;;;;143734;571;47022;-81
2022/01/26 07:13:41;;;;;;;16.52;7.93;;;;;;;;;;143735;586;46012;-81
2022/01/26 07:21:39;;;;;;;15.25;9.15;;;;;;;;;;143734;595;47020;-80
2022/01/26 07:24:08;;;;;;;14.65;8.48;;;;;;;;;;143734;597;46013;-81
2022/01/26 07:26:36;;;;;;;16.27;8.48;;;;;;;;;;143734;595;46020;-80
2022/01/26 07:29:10;;;;;;;15.75;9.52;;;;;;;;;;143735;653;46019;-80
2022/01/26 07:31:38;;;;;;;;;;;;;;;;;;143740;954;46048;-81
2022/01/26 07:34:06;;;;;;;15.02;9.40;;;;;;;;;;143744;572;46049;-80
2022/01/26 07:36:33;;;;;;;16.98;8.57;;;;;;;;;;143736;574;46013;-81
2022/01/26 07:39:10;;;;;;;11.65;7.95;;;;;;;;;;143738;565;46043;-81
2022/01/26 07:41:38;;;;;;;34.22;8.73;;;;;;;;;;143733;571;47022;-81
2022/01/26 07:44:06;;;;;;;9.82;6.60;;;;;;;;;;143735;636;46020;-81
2022/01/26 07:46:33;;;;;;;13.60;8.23;;;;;;;;;;143740;565;46010;-82
2022/01/26 07:49:00;;;;;;;11.27;7.00;;;;;;;;;;143736;578;46012;-81
2022/01/26 07:51:28;;;;;;;13.68;7.75;;;;;;;;;;143733;603;47020;-80
2022/01/26 07:53:55;;;;;;;13.30;8.07;;;;;;;;;;143735;594;46011;-82
2022/01/26 07:56:22;;;;;;;17.52;7.78;;;;;;;;;;143737;568;46020;-82
2022/01/26 07:58:49;;;;;;;12.68;6.60;;;;;;;;;;143737;597;46010;-81
2022/01/26 08:01:16;;;;;;;14.68;7.65;;;;;;;;;;143735;613;46013;-81
2022/01/26 08:03:44;;;;;;;16.83;7.72;;;;;;;;;;143734;608;46029;-80
2022/01/26 08:06:15;;;;;;;29.92;16.48;;;;;;;;;;143736;580;46020;-81
2022/01/26 08:08:46;;;;;;;23.67;12.60;;;;;;;;;;143737;583;46010;-82
2022/01/26 08:11:13;;;;;;;16.75;7.07;;;;;;;;;;143735;593;46020;-80
2022/01/26 08:13:40;;;;;;;17.98;9.45;;;;;;;;;;143735;643;46020;-82
2022/01/26 08:16:11;;;;;;;14.30;7.93;;;;;;;;;;143737;595;46021;-80
2022/01/26 08:18:39;;;;;;;23.62;10.60;;;;;;;;;;143737;595;46010;-82
2022/01/26 08:21:07;;;;;;;22.67;12.95;;;;;;;;;;143734;636;47022;-81
2022/01/26 08:23:42;;;;;;;17.12;9.57;;;;;;;;;;143734;650;46013;-80
2022/01/26 08:26:13;;;;;;;13.73;7.60;;;;;;;;;;143736;628;46020;-81
2022/01/26 08:28:45;;;;;;;15.60;9.27;;;;;;;;;;143738;629;46010;-81
2022/01/26 08:31:15;;;;;;;17.50;9.77;;;;;;;;;;143733;597;47023;-81
2022/01/26 08:33:50;;;;;;;14.85;7.53;;;;;;;;;;143737;605;45915;-80
2022/01/26 08:36:21;;;;;;;14.30;8.77;;;;;;;;;;143734;583;47020;-82
2022/01/26 08:38:47;;;;;;;14.85;8.23;;;;;;;;;;143737;589;46043;-81
2022/01/26 08:41:14;;;;;;;16.50;6.55;;;;;;;;;;143733;597;47022;-81
2022/01/26 08:43:42;;;;;;;14.13;6.82;;;;;;;;;;143737;604;45915;-81
2022/01/26 08:46:19;;;;;;;14.70;7.40;;;;;;;;;;143736;570;46021;-81
2022/01/26 08:48:46;;;;;;;12.07;7.05;;;;;;;;;;143739;594;46020;-80
2022/01/26 08:51:15;;;;;;;11.57;7.87;;;;;;;;;;143734;591;46015;-81
2022/01/26 08:53:43;;;;;;;13.10;6.68;;;;;;;;;;143733;628;46010;-81
2022/01/26 08:56:11;;;;;;;10.48;6.57;;;;;;;;;;143739;570;46020;-81
2022/01/26 08:58:38;;;;;;;12.70;7.87;;;;;;;;;;143739;583;46010;-81
2022/01/26 09:01:05;;;;;;;13.70;6.68;;;;;;;;;;143737;587;46012;-81
2022/01/26 09:03:41;;;;;;;13.60;6.28;;;;;;;;;;143736;585;47010;-82
2022/01/26 09:06:10;;;;;;;12.77;6.87;;;;;;;;;;143740;569;45020;-82
2022/01/26 09:08:44;;;;;;;15.85;6.80;;;;;;;;;;143739;564;46021;-82
2022/01/26 09:11:11;;;;;;;8.82;6.18;;;;;;;;;;143735;571;47022;-81
2022/01/26 09:13:38;;;;;;;15.07;8.75;;;;;;;;;;143736;569;46020;-81
2022/01/26 09:16:18;;;;;;;16.55;7.12;;;;;;;;;;143733;678;46909;-81
2022/01/26 09:18:51;;;;;;;11.07;7.25;;;;;;;;;;143738;586;46044;-81
2022/01/26 09:21:25;;;;;;;13.48;7.03;;;;;;;;;;143736;597;46013;-80
2022/01/26 09:23:52;;;;;;;20.25;7.32;;;;;;;;;;143733;651;46010;-80
2022/01/26 09:26:20;;;;;;;12.27;7.55;;;;;;;;;;143736;641;46020;-81
2022/01/26 09:28:47;;;;;;;13.93;6.62;;;;;;;;;;143741;594;45043;-81
2022/01/26 09:31:15;;;;;;;13.85;7.50;;;;;;;;;;143736;571;46021;-81
2022/01/26 09:33:45;;;;;;;9.32;6.72;;;;;;;;;;143735;606;46010;-82
2022/01/26 09:36:11;;;;;;;18.92;8.10;;;;;;;;;;143734;571;46021;-81
2022/01/26 09:38:39;;;;;;;14.52;6.25;;;;;;;;;;143738;584;46018;-81
2022/01/26 09:41:08;;;;;;;11.20;6.75;;;;;;;;;;143736;619;46020;-82
2022/01/26 09:43:39;;;;;;;18.98;8.25;;;;;;;;;;143737;586;45915;-82
2022/01/26 09:46:06;;;;;;;10.73;7.05;;;;;;;;;;143738;605;46021;-81
2022/01/26 09:48:35;;;;;;;13.57;8.60;;;;;;;;;;143739;596;46020;-82
2022/01/26 09:51:03;;;;;;;15.02;7.85;;;;;;;;;;143735;569;46021;-81
2022/01/26 09:53:32;;;;;;;10.55;7.15;;;;;;;;;;143733;664;46010;-81
2022/01/26 09:55:59;;;;;;;15.95;7.37;;;;;;;;;;143736;622;46020;-80
2022/01/26 09:58:29;;;;;;;17.17;7.57;;;;;;;;;;143738;566;46020;-81
2022/01/26 10:01:05;;;;;;;16.15;9.35;;;;;;;;;;143736;565;46012;-82
2022/01/26 10:03:35;;;;;;;14.13;7.97;;;;;;;;;;143736;684;46010;-81
2022/01/26 10:06:13;;;;;;;;;;;;;;;;;;;;;
2022/01/26 10:20:03;;;;;;;15.75;6.68;;;;;;;;;;143736;568;46018;-81
2022/01/26 10:22:36;;;;;;;10.45;6.18;;;;;;;;;;143732;616;46022;-80
2022/01/26 10:25:15;;;;;;;8.40;5.90;;;;;;;;;;143735;583;45915;-80
2022/01/26 10:27:50;;;;;;;13.27;8.32;;;;;;;;;;143733;602;46020;-81
2022/01/26 10:30:19;;;;;;;8.02;6.25;;;;;;;;;;143735;627;46021;-79
2022/01/26 10:32:47;;;;;;;14.23;5.55;;;;;;;;;;143733;691;46022;-81
2022/01/26 10:35:16;;;;;;;9.30;5.10;;;;;;;;;;143731;705;46010;-81
2022/01/26 10:37:55;;;;;;;8.05;5.95;;;;;;;;;;143734;606;46021;-79
2022/01/26 10:40:25;;;;;;;12.07;5.22;;;;;;;;;;143734;626;46018;-81
2022/01/26 10:42:56;;;;;;;9.38;5.15;;;;;;;;;;143732;676;46022;-82
2022/01/26 10:45:58;;;;;;;14.60;6.05;;;;;;;;;;143734;611;46010;-80
2022/01/26 10:48:35;;;;;;;10.85;4.90;;;;;;;;;;143733;716;46020;-80
2022/01/26 10:51:38;;;;;;;9.10;5.20;;;;;;;;;;143734;593;46011;-82
2022/01/26 10:54:18;;;;;;;10.20;6.47;;;;;;;;;;143734;625;46025;-83
2022/01/26 10:56:45;;;;;;;7.65;4.37;;;;;;;;;;143732;565;46020;-83
2022/01/26 10:59:14;;;;;;;9.27;4.35;;;;;;;;;;143734;689;46033;-81
2022/01/26 11:01:44;;;;;;;5.45;4.12;;;;;;;;;;143735;683;46010;-81
2022/01/26 11:04:11;;;;;;;20.85;5.20;;;;;;;;;;143733;582;46022;-81
2022/01/26 11:06:49;;;;;;;12.37;4.80;;;;;;;;;;143731;668;46021;-81
2022/01/26 11:09:23;;;;;;;11.38;7.47;;;;;;;;;;143734;582;46020;-79
2022/01/26 11:12:03;;;;;;;6.20;4.30;;;;;;;;;;143735;638;46010;-81
2022/01/26 11:14:46;;;;;;;10.13;5.78;;;;;;;;;;143732;677;46022;-80
2022/01/26 11:17:34;;;;;;;8.63;4.07;;;;;;;;;;143734;573;45917;-81
2022/01/26 11:20:03;;;;;;;8.85;4.82;;;;;;;;;;143734;582;46020;-80
2022/01/26 11:22:32;;;;;;;5.65;4.15;;;;;;;;;;143735;676;46021;-81
2022/01/26 11:25:10;;;;;;;12.60;3.85;;;;;;;;;;143733;708;46020;-80
2022/01/26 11:27:39;;;;;;;9.23;4.90;;;;;;;;;;143733;609;46010;-80
2022/01/26 11:30:31;;;;;;;14.27;6.50;;;;;;;;;;143734;622;46030;-81
2022/01/26 11:33:02;;;;;;;14.65;7.53;;;;;;;;;;143734;712;46012;-81
2022/01/26 11:35:37;;;;;;;9.15;5.72;;;;;;;;;;143737;667;46022;-80
2022/01/26 11:38:51;;;;;;;7.55;5.30;;;;;;;;;;143736;577;46010;-80
2022/01/26 11:47:30;;;;;;;10.88;5.50;;;;;;;;;;143734;665;46020;-80
2022/01/26 11:50:48;;;;;;;;;;;;;;;;;;;;;
2022/01/26 11:53:25;;;;;;;14.85;5.50;;;;;;;;;;143735;635;46020;-80
2022/01/26 11:56:00;;;;;;;9.85;5.65;;;;;;;;;;143740;576;46018;-80
2022/01/26 11:58:39;;;;;;;7.87;5.22;;;;;;;;;;143737;686;46022;-80
2022/01/26 12:01:19;;;;;;;21.67;7.03;;;;;;;;;;143733;591;46010;-80
2022/01/26 12:04:11;;;;;;;29.92;17.05;;;;;;;;;;143734;599;46033;-80
2022/01/26 12:06:47;;;;;;;79.68;42.95;;;;;;;;;;143733;566;46011;-80
2022/01/26 12:09:14;;;;;;;55.08;18.80;;;;;;;;;;143732;589;46023;-80
2022/01/26 12:11:42;;;;;;;76.75;36.35;;;;;;;;;;143735;632;46010;-80
2022/01/26 12:14:19;;;;;;;135.77;72.07;;;;;;;;;;143733;691;46021;-80
2022/01/26 12:16:49;;;;;;;36.80;23.62;;;;;;;;;;143735;580;46010;-80
2022/01/26 12:19:33;;;;;;;37.30;21.83;;;;;;;;;;143732;619;46020;-81
2022/01/26 12:36:58;;;;;;;10.32;6.07;;;;;;;;;;143734;583;46014;-80
2022/01/26 12:42:42;;;;;;;10.70;7.53;;;;;;;;;;143733;625;46022;-81
2022/01/26 12:45:09;;;;;;;12.25;6.97;;;;;;;;;;143733;596;46020;-80
2022/01/26 12:47:58;;;;;;;12.35;7.37;;;;;;;;;;143734;607;46020;-81
2022/01/26 12:50:25;;;;;;;13.62;5.85;;;;;;;;;;143734;584;46012;-80
2022/01/26 12:52:55;;;;;;;8.23;4.47;;;;;;;;;;143735;612;45911;-80
2022/01/26 12:55:34;;;;;;;7.53;4.72;;;;;;;;;;143732;600;46012;-81
2022/01/26 12:58:05;;;;;;;11.93;6.43;;;;;;;;;;143733;585;46021;-80
2022/01/26 13:00:44;;;;;;;20.05;11.93;;;;;;;;;;143734;588;46021;-80
2022/01/26 13:03:13;;;;;;;11.38;7.50;;;;;;;;;;143730;587;46022;-79
2022/01/26 13:05:41;;;;;;;24.65;12.37;;;;;;;;;;143730;594;46021;-81
2022/01/26 13:08:10;;;;;;;11.43;5.97;;;;;;;;;;143734;613;46020;-80
2022/01/26 13:10:37;;;;;;;10.43;4.57;;;;;;;;;;143734;602;46018;-81
2022/01/26 13:13:20;;;;;;;10.98;7.53;;;;;;;;;;143735;570;45911;-80
2022/01/26 13:15:54;;;;;;;7.03;4.43;;;;;;;;;;143733;665;46020;-81
2022/01/26 13:18:42;;;;;;;9.63;3.80;;;;;;;;;;143728;613;47018;-80
2022/01/26 13:21:52;;;;;;;12.13;5.22;;;;;;;;;;143736;593;46045;-80
2022/01/26 13:27:29;;;;;;;8.32;4.57;;;;;;;;;;143733;583;46021;-81
2022/01/26 13:30:15;;;;;;;9.10;3.85;;;;;;;;;;143732;570;46021;-80
2022/01/26 13:39:14;;;;;;;16.77;8.87;;;;;;;;;;143735;595;46012;-82
2022/01/26 13:41:57;;;;;;;11.43;5.97;;;;;;;;;;143734;584;46020;-80
2022/01/26 13:44:52;;;;;;;12.00;4.90;;;;;;;;;;143736;585;46021;-82
2022/01/26 13:47:56;;;;;;;10.80;4.87;;;;;;;;;;143733;601;47022;-81
2022/01/26 13:50:25;;;;;;;6.45;3.97;;;;;;;;;;143735;576;46012;-81
2022/01/26 13:53:07;;;;;;;7.50;4.07;;;;;;;;;;143734;607;46021;-81
2022/01/26 14:01:20;;;;;;;8.00;4.82;;;;;;;;;;143734;571;45915;-82
2022/01/26 14:03:51;;;;;;;9.05;4.85;;;;;;;;;;143734;592;46020;-82
2022/01/26 14:06:20;;;;;;;6.03;4.03;;;;;;;;;;143735;636;46021;-82
2022/01/26 14:08:48;;;;;;;10.63;6.65;;;;;;;;;;143730;570;48014;-81
2022/01/26 14:11:16;;;;;;;9.65;6.70;;;;;;;;;;143732;709;46012;-82
2022/01/26 14:13:45;;;;;;;10.77;6.75;;;;;;;;;;143732;567;48016;-81
2022/01/26 14:16:16;;;;;;;11.02;6.12;;;;;;;;;;143735;645;46012;-82
2022/01/26 14:19:01;;;;;;;17.33;9.80;;;;;;;;;;143737;682;45022;-81
2022/01/26 14:27:49;;;;;;;16.12;12.10;;;;;;;;;;143735;650;46012;-80
2022/01/26 14:30:35;;;;;;;15.27;8.23;;;;;;;;;;143731;590;47023;-82
2022/01/26 14:33:29;;;;;;;21.70;9.27;;;;;;;;;;143729;596;47028;-81
2022/01/26 14:55:58;;;;;;;23.77;15.48;;;;;;;;;;143733;690;46012;-81
2022/01/26 15:41:25;;;;;;;37.15;21.83;;;;;;;;;;143733;591;46012;-81
2022/01/26 15:44:19;;;;;;;54.53;31.00;;;;;;;;;;143732;605;46020;-81
2022/01/26 15:49:49;;;;;;;59.55;36.95;;;;;;;;;;143733;581;46015;-81
2022/01/26 15:52:38;;;;;;;60.15;40.72;;;;;;;;;;143732;656;46012;-80
2022/01/26 16:04:34;;;;;;;28.35;16.40;;;;;;;;;;143735;571;46013;-81
2022/01/26 16:07:15;;;;;;;22.83;15.77;;;;;;;;;;143738;619;46020;-82
2022/01/26 17:03:25;;;;;;;32.00;20.48;;;;;;;;;;143738;585;45914;-81
2022/01/26 18:16:36;;;;;;;39.88;28.85;;;;;;;;;;143737;705;47018;-84
2022/01/26 18:33:17;;;;;;;55.40;34.30;;;;;;;;;;143738;640;46040;-83
2022/01/26 18:49:52;;;;;;;56.92;38.97;;;;;;;;;;143739;662;46010;-85
2022/01/26 18:52:47;;;;;;;63.22;40.47;;;;;;;;;;143735;704;46020;-85
2022/01/26 18:55:28;;;;;;;;;;;;;;;;;;;;;
2022/01/26 18:58:07;;;;;;;;;;;;;;;;;;;;;
2022/01/26 19:00:59;;;;;;;75.72;46.90;;;;;;;;;;143735;569;46020;-84
2022/01/26 19:03:42;;;;;;;59.55;41.65;;;;;;;;;;143735;612;46024;-85
2022/01/26 19:06:10;;;;;;;86.55;53.22;;;;;;;;;;143736;615;46010;-83
2022/01/26 19:08:40;;;;;;;47.47;34.15;;;;;;;;;;143734;600;46020;-82
2022/01/26 19:11:25;;;;;;;44.33;26.60;;;;;;;;;;143736;577;46010;-84
2022/01/26 19:14:26;;;;;;;44.45;28.27;;;;;;;;;;143736;694;46022;-82
2022/01/26 19:17:18;;;;;;;40.90;23.12;;;;;;;;;;143735;671;46010;-82
2022/01/26 19:20:21;;;;;;;39.75;24.55;;;;;;;;;;143742;601;46021;-82
2022/01/26 19:26:38;;;;;;;14.60;7.78;;;;;;;;;;143738;597;45022;-82
2022/01/26 19:32:39;;;;;;;12.50;6.53;;;;;;;;;;143741;565;46046;-83
2022/01/26 19:52:33;;;;;;;16.60;8.05;;;;;;;;;;143736;594;46010;-83
2022/01/26 19:55:10;;;;;;;17.67;8.07;;;;;;;;;;143737;599;46012;-83
2022/01/26 19:57:39;;;;;;;18.70;9.32;;;;;;;;;;143738;616;46020;-84
2022/01/26 20:00:07;;;;;;;21.55;13.43;;;;;;;;;;143735;592;46022;-83
2022/01/26 20:02:43;;;;;;;20.33;15.27;;;;;;;;;;143736;564;47021;-84
2022/01/26 20:05:16;;;;;;;21.87;13.20;;;;;;;;;;143735;637;46020;-83
2022/01/26 20:07:58;;;;;;;19.90;13.48;;;;;;;;;;143736;584;46010;-83
2022/01/26 20:10:30;;;;;;;16.17;10.05;;;;;;;;;;143732;624;47022;-83
2022/01/26 20:13:06;;;;;;;16.33;9.20;;;;;;;;;;143732;588;46012;-83
2022/01/26 20:15:33;;;;;;;12.40;8.00;;;;;;;;;;143737;636;46020;-83
2022/01/26 20:18:03;;;;;;;14.02;8.82;;;;;;;;;;143738;600;46010;-83
2022/01/26 20:20:39;;;;;;;12.05;7.47;;;;;;;;;;143735;594;46039;-83
2022/01/26 20:23:07;;;;;;;9.60;7.28;;;;;;;;;;143734;614;46020;-83
2022/01/26 20:25:36;;;;;;;13.02;8.10;;;;;;;;;;143734;571;47021;-83
2022/01/26 20:28:09;;;;;;;14.10;8.18;;;;;;;;;;143736;592;46010;-84
2022/01/26 20:30:43;;;;;;;16.83;9.88;;;;;;;;;;143733;606;46022;-83
2022/01/26 20:33:43;;;;;;;16.33;8.02;;;;;;;;;;143733;586;47012;-83
2022/01/26 20:36:30;;;;;;;22.95;12.68;;;;;;;;;;143737;654;47018;-84
2022/01/26 20:39:19;;;;;;;;;;;;;;;;;;;;;
2022/01/26 20:41:54;;;;;;;14.45;8.27;;;;;;;;;;143735;626;46025;-83
2022/01/26 20:44:34;;;;;;;11.63;6.82;;;;;;;;;;143733;590;46010;-84
2022/01/26 20:47:01;;;;;;;12.63;7.32;;;;;;;;;;143735;588;47019;-84
2022/01/26 20:49:48;;;;;;;12.05;7.07;;;;;;;;;;143738;577;46018;-83
2022/01/26 20:52:36;;;;;;;;;;;;;;;;;;;;;
2022/01/26 20:55:07;;;;;;;14.45;6.80;;;;;;;;;;143735;608;46914;-82
2022/01/26 20:57:42;;;;;;;17.58;7.05;;;;;;;;;;143735;610;46020;-83
2022/01/26 21:00:16;;;;;;;15.65;9.35;;;;;;;;;;143737;564;46010;-83
2022/01/26 21:02:48;;;;;;;;;;;;;;;;;;143740;970;46012;-84
2022/01/26 21:05:29;;;;;;;;;;;;;;;;;;;;;
2022/01/26 21:08:02;;;;;;;15.13;7.85;;;;;;;;;;143736;598;46016;-83
2022/01/26 21:10:34;;;;;;;14.18;6.47;;;;;;;;;;143734;564;47021;-85
2022/01/26 21:13:15;;;;;;;12.60;7.18;;;;;;;;;;143734;609;46022;-84
2022/01/26 21:15:44;;;;;;;9.35;5.82;;;;;;;;;;143735;585;46020;-84
2022/01/26 21:18:30;;;;;;;25.05;8.50;;;;;;;;;;143733;565;47021;-83
2022/01/26 21:21:03;;;;;;;18.80;4.95;;;;;;;;;;143737;566;46012;-83
2022/01/26 21:23:55;;;;;;;8.02;3.67;;;;;;;;;;143733;597;46022;-84
2022/01/26 21:26:25;;;;;;;14.68;6.37;;;;;;;;;;143736;590;46020;-83
2022/01/26 21:29:09;;;;;;;8.63;5.45;;;;;;;;;;143738;658;47020;-83
2022/01/26 21:31:51;;;;;;;;;;;;;;;;;;;;;
2022/01/26 21:34:18;;;;;;;9.73;5.62;;;;;;;;;;143737;593;46046;-83
2022/01/26 21:36:45;;;;;;;13.52;7.28;;;;;;;;;;143734;563;46020;-83
2022/01/26 21:39:15;;;;;;;8.30;4.93;;;;;;;;;;143735;598;46021;-84